createdAt,value
2019-02-10T00:01:05.960Z,5.75
2019-02-10T00:06:06.653Z,5.63
2019-02-10T00:10:06.794Z,6.21
2019-02-10T00:15:07.919Z,6.36
2019-02-10T00:20:06.652Z,6.22
2019-02-10T00:25:06.334Z,6.24
2019-02-10T00:30:08.375Z,5.95
2019-02-10T00:35:06.149Z,5.85
2019-02-10T00:40:06.458Z,5.82
2019-02-10T00:45:07.572Z,5.69
2019-02-10T00:49:06.433Z,5.64
2019-02-10T00:54:06.050Z,5.68
2019-02-10T00:59:06.620Z,5.55
2019-02-10T01:04:06.399Z,5.4
2019-02-10T01:09:06.357Z,5.46
2019-02-10T01:14:06.045Z,5.26
2019-02-10T01:19:06.614Z,5.1
2019-02-10T01:23:06.323Z,4.8
2019-02-10T01:28:06.812Z,4.81
2019-02-10T01:33:06.222Z,4.68
2019-02-10T01:38:06.879Z,4.45
2019-02-10T01:43:06.847Z,4.45
2019-02-10T01:48:06.468Z,4.54
2019-02-10T01:53:06.121Z,4.67
2019-02-10T01:58:06.734Z,5
2019-02-10T02:02:06.025Z,4.97
2019-02-10T02:07:10.468Z,4.86
2019-02-10T02:12:06.659Z,4.88
2019-02-10T02:17:06.387Z,4.94
2019-02-10T02:22:06.035Z,4.9
2019-02-10T02:27:06.580Z,4.75
2019-02-10T02:32:06.963Z,4.56
2019-02-10T02:36:06.783Z,4.42
2019-02-10T02:41:06.763Z,4.41
2019-02-10T02:46:06.075Z,4.29
2019-02-10T02:51:06.646Z,4.17
2019-02-10T02:56:06.218Z,4.15
2019-02-10T03:01:06.528Z,4.22
2019-02-10T03:06:07.019Z,4.12
2019-02-10T03:11:06.919Z,4.06
2019-02-10T03:15:08.392Z,3.91
2019-02-10T03:20:06.997Z,4.04
2019-02-10T03:25:06.556Z,4.1
2019-02-10T03:30:07.633Z,4.24
2019-02-10T03:35:06.879Z,4.12
2019-02-10T03:40:07.250Z,4.18
2019-02-10T03:45:07.936Z,4.09
2019-02-10T03:49:06.134Z,4.01
2019-02-10T03:54:06.927Z,3.75
2019-02-10T03:59:06.510Z,3.76
2019-02-10T04:04:06.317Z,3.7
2019-02-10T04:09:07.868Z,4.01
2019-02-10T04:14:06.127Z,3.69
2019-02-10T04:19:07.039Z,3.73
2019-02-10T04:24:06.322Z,3.77
2019-02-10T04:28:06.145Z,3.78
2019-02-10T04:33:06.526Z,3.93
2019-02-10T04:38:06.238Z,4.02
2019-02-10T04:43:06.370Z,4.07
2019-02-10T04:48:06.802Z,4.29
2019-02-10T04:53:06.366Z,4.27
2019-02-10T04:58:06.006Z,4.01
2019-02-10T05:02:06.404Z,3.7
2019-02-10T05:07:06.124Z,3.84
2019-02-10T05:12:06.292Z,3.92
2019-02-10T05:17:06.534Z,3.99
2019-02-10T05:22:06.206Z,4
2019-02-10T05:27:06.932Z,3.88
2019-02-10T05:32:06.587Z,4.03
2019-02-10T05:37:06.260Z,4.05
2019-02-10T05:41:06.944Z,4.1
2019-02-10T05:46:06.027Z,4.07
2019-02-10T05:51:06.918Z,4.02
2019-02-10T05:56:06.473Z,4.17
2019-02-10T06:01:06.646Z,4.17
2019-02-10T06:06:06.183Z,4.24
2019-02-10T06:11:06.245Z,4.21
2019-02-10T06:16:06.828Z,4.32
2019-02-10T06:20:06.569Z,4.46
2019-02-10T06:25:06.265Z,4.52
2019-02-10T06:30:08.238Z,4.57
2019-02-10T06:35:06.491Z,4.69
2019-02-10T06:40:06.499Z,4.77
2019-02-10T06:45:07.621Z,4.72
2019-02-10T06:50:06.504Z,4.73
2019-02-10T06:54:06.265Z,4.8
2019-02-10T06:59:06.881Z,4.8
2019-02-10T07:04:07.036Z,4.94
2019-02-10T07:09:07.123Z,4.96
2019-02-10T07:14:06.733Z,4.98
2019-02-10T07:19:06.293Z,5.11
2019-02-10T07:24:07.013Z,5.1
2019-02-10T07:29:06.652Z,4.98
2019-02-10T07:33:06.346Z,4.86
2019-02-10T07:38:06.020Z,4.8
2019-02-10T07:43:06.500Z,4.82
2019-02-10T07:48:06.417Z,4.78
2019-02-10T07:53:06.231Z,4.71
2019-02-10T07:58:06.783Z,4.71
2019-02-10T08:03:06.549Z,4.74
2019-02-10T08:08:06.078Z,4.73
2019-02-10T08:12:06.160Z,4.66
2019-02-10T08:17:06.729Z,4.62
2019-02-10T08:22:06.360Z,4.51
2019-02-10T08:27:06.058Z,4.46
2019-02-10T08:32:06.821Z,4.54
2019-02-10T08:37:06.376Z,4.59
2019-02-10T08:42:06.738Z,4.61
2019-02-10T08:46:06.311Z,4.67
2019-02-10T08:51:06.049Z,4.73
2019-02-10T08:56:06.721Z,4.76
2019-02-10T09:01:06.683Z,4.82
2019-02-10T09:06:06.453Z,4.88
2019-02-10T09:11:06.410Z,5
2019-02-10T09:16:06.158Z,5.03
2019-02-10T09:21:06.814Z,5.02
2019-02-10T09:25:06.533Z,5.05
2019-02-10T09:30:07.459Z,5.11
2019-02-10T09:35:06.621Z,5.18
2019-02-10T09:40:06.599Z,5.3
2019-02-10T09:45:07.189Z,5.46
2019-02-10T09:50:06.853Z,5.67
2019-02-10T09:55:06.678Z,5.83
2019-02-10T09:59:06.390Z,6.06
2019-02-10T10:04:06.012Z,6.04
2019-02-10T10:09:06.991Z,6.08
2019-02-10T10:14:06.536Z,6.16
2019-02-10T10:19:06.192Z,6.27
2019-02-10T10:24:06.897Z,6.27
2019-02-10T10:29:06.289Z,6.25
2019-02-10T10:33:06.232Z,6.35
2019-02-10T10:38:06.373Z,6.4
2019-02-10T10:43:06.367Z,6.46
2019-02-10T10:48:06.545Z,6.46
2019-02-10T10:53:06.513Z,6.78
2019-02-10T10:58:06.674Z,6.94
2019-02-10T11:03:06.726Z,7.02
2019-02-10T11:08:06.984Z,6.97
2019-02-10T11:12:06.908Z,6.97
2019-02-10T11:17:10.349Z,7.12
2019-02-10T11:22:06.087Z,7.19
2019-02-10T11:27:06.797Z,7.27
2019-02-10T11:32:06.722Z,7.31
2019-02-10T11:37:06.387Z,7.32
2019-02-10T11:42:06.467Z,7.63
2019-02-10T11:46:06.087Z,7.88
2019-02-10T11:51:06.604Z,8.02
2019-02-10T11:56:06.203Z,8.11
2019-02-10T12:01:06.947Z,8.3
2019-02-10T12:06:06.415Z,8.39
2019-02-10T12:11:06.324Z,8.46
2019-02-10T12:15:08.471Z,8.56
2019-02-10T12:16:06.568Z,8.56
2019-02-10T12:20:06.239Z,8.57
2019-02-10T12:25:06.811Z,8.71
2019-02-10T12:30:07.994Z,8.73
2019-02-10T12:35:06.392Z,8.79
2019-02-10T12:40:06.342Z,8.94
2019-02-10T12:45:07.981Z,9.08
2019-02-10T12:50:06.531Z,9.05
2019-02-10T12:55:06.029Z,9.04
2019-02-10T12:59:06.775Z,9.14
2019-02-10T13:04:06.600Z,9.04
2019-02-10T13:09:06.674Z,8.9
2019-02-10T13:14:06.239Z,8.83
2019-02-10T13:19:06.598Z,8.82
2019-02-10T13:24:06.345Z,8.87
2019-02-10T13:29:05.980Z,8.82
2019-02-10T13:33:06.458Z,8.77
2019-02-10T13:38:06.189Z,8.65
2019-02-10T13:43:06.912Z,8.57
2019-02-10T13:48:06.513Z,8.55
2019-02-10T13:53:06.080Z,8.6
2019-02-10T13:58:06.994Z,8.5
2019-02-10T14:03:06.862Z,8.45
2019-02-10T14:08:06.511Z,8.45
2019-02-10T14:12:06.422Z,8.45
2019-02-10T14:17:07.191Z,8.58
2019-02-10T14:22:06.460Z,8.6
2019-02-10T14:27:06.411Z,8.48
2019-02-10T14:32:06.173Z,8.56
2019-02-10T14:37:07.149Z,8.52
2019-02-10T14:42:06.762Z,8.53
2019-02-10T14:46:06.692Z,8.61
2019-02-10T14:51:06.682Z,8.85
2019-02-10T14:56:06.985Z,8.85
2019-02-10T15:01:06.251Z,8.87
2019-02-10T15:06:07.114Z,8.95
2019-02-10T15:11:05.984Z,9.25
2019-02-10T15:16:06.651Z,9.25
2019-02-10T15:21:06.835Z,9.51
2019-02-10T15:25:06.531Z,9.5
2019-02-10T15:30:07.408Z,9.51
2019-02-10T15:35:06.602Z,9.32
2019-02-10T15:40:06.818Z,9.33
2019-02-10T15:45:07.814Z,9.46
2019-02-10T15:50:06.555Z,9.63
2019-02-10T15:55:06.088Z,9.48
2019-02-10T15:59:07.061Z,9.53
2019-02-10T16:04:06.425Z,9.67
2019-02-10T16:09:07.414Z,9.61
2019-02-10T16:14:07.009Z,9.4
2019-02-10T16:19:06.497Z,9.62
2019-02-10T16:24:06.615Z,9.62
2019-02-10T16:29:06.162Z,9.67
2019-02-10T16:34:06.724Z,9.54
2019-02-10T16:38:06.299Z,9.59
2019-02-10T16:43:06.092Z,9.44
2019-02-10T16:48:06.481Z,9.45
2019-02-10T16:53:06.884Z,9.46
2019-02-10T16:58:06.503Z,9.49
2019-02-10T17:03:07.816Z,9.59
2019-02-10T17:08:06.428Z,9.77
2019-02-10T17:13:06.459Z,9.46
2019-02-10T17:17:06.693Z,9.46
2019-02-10T17:22:06.279Z,9.57
2019-02-10T17:27:06.911Z,9.66
2019-02-10T17:32:06.488Z,9.81
2019-02-10T17:37:06.243Z,9.62
2019-02-10T17:42:06.530Z,9.34
2019-02-10T17:47:06.038Z,9.42
2019-02-10T17:51:06.815Z,9.14
2019-02-10T17:56:06.403Z,9.31
2019-02-10T18:01:06.448Z,9.31
2019-02-10T18:06:06.019Z,9.22
2019-02-10T18:11:06.315Z,9.12
2019-02-10T18:16:06.216Z,9.04
2019-02-10T18:21:06.901Z,9.14
2019-02-10T18:26:06.540Z,9.14
2019-02-10T18:30:07.328Z,8.95
2019-02-10T18:35:06.069Z,9.02
2019-02-10T18:40:06.286Z,9.06
2019-02-10T18:45:08.693Z,9.19
2019-02-10T18:50:06.999Z,9.31
2019-02-10T18:55:06.578Z,9.38
2019-02-10T19:04:06.617Z,9.11
2019-02-10T19:09:06.590Z,9.17
2019-02-10T19:14:06.244Z,8.95
2019-02-10T19:19:06.882Z,8.72
2019-02-10T19:24:06.453Z,8.32
2019-02-10T19:29:06.520Z,8.19
2019-02-10T19:34:06.068Z,8.42
2019-02-10T19:39:07.034Z,8.35
2019-02-10T19:43:06.087Z,8.35
2019-02-10T19:48:06.257Z,8.44
2019-02-10T19:53:06.847Z,8.35
2019-02-10T19:58:06.321Z,8.49
2019-02-10T20:03:05.971Z,8.39
2019-02-10T20:08:05.990Z,8.44
2019-02-10T20:13:06.950Z,8.43
2019-02-10T20:18:06.321Z,8.38
2019-02-10T20:22:06.095Z,8.52
2019-02-10T20:27:06.706Z,8.5
2019-02-10T20:32:07.034Z,8.31
2019-02-10T20:37:06.311Z,8.09
2019-02-10T20:42:12.012Z,7.86
2019-02-10T20:47:06.654Z,7.87
2019-02-10T20:52:06.182Z,7.62
2019-02-10T20:56:06.920Z,7.24
2019-02-10T21:01:06.118Z,7.03
2019-02-10T21:06:06.722Z,6.78
2019-02-10T21:11:06.802Z,6.58
2019-02-10T21:16:06.364Z,6.38
2019-02-10T21:21:06.909Z,6.43
2019-02-10T21:26:06.588Z,6.49
2019-02-10T21:31:06.865Z,6.36
2019-02-10T21:35:06.628Z,6.38
2019-02-10T21:40:06.703Z,6.4
2019-02-10T21:45:07.412Z,6.4
2019-02-10T21:50:06.757Z,6.4
2019-02-10T21:55:06.394Z,6.54
2019-02-10T22:00:09.277Z,6.57
2019-02-10T22:05:06.517Z,6.71
2019-02-10T22:09:06.581Z,6.63
2019-02-10T22:14:06.065Z,6.8
2019-02-10T22:19:06.356Z,6.7
2019-02-10T22:24:06.013Z,6.7
2019-02-10T22:29:06.662Z,6.6
2019-02-10T22:34:05.975Z,6.5
2019-02-10T22:39:06.869Z,6.38
2019-02-10T22:44:06.350Z,6.52
2019-02-10T22:48:06.294Z,6.3
2019-02-10T22:53:06.867Z,6.25
2019-02-10T22:58:06.344Z,6.43
2019-02-10T23:03:06.175Z,6.25
2019-02-10T23:08:06.756Z,6.31
2019-02-10T23:13:06.866Z,6.37
2019-02-10T23:18:06.077Z,6.23
2019-02-10T23:22:06.902Z,6.1
2019-02-10T23:27:06.400Z,6.25
2019-02-10T23:32:06.885Z,6.08
2019-02-10T23:37:06.353Z,5.97
2019-02-10T23:42:06.567Z,5.74
2019-02-10T23:47:05.958Z,5.72
2019-02-10T23:52:06.662Z,5.53
2019-02-10T23:57:06.207Z,5.54
